Time;durP1;ratioP1;P1;durP2;ratioP2;P2;SDS_P1;SDS_P2;PMS_P1;PMS_P2;Temp;Humidity;BMP_temperature;BMP_pressure;BME280_temperature;BME280_humidity;BME280_pressure;Samples;Min_cycle;Max_cycle;Signal;HPM_P1;HPM_P2
2021/04/29 00:01:48;;;;;;;1.88;1.20;;;16.80;73.80;;;;;;4974769;28;20034;-54
2021/04/29 00:04:15;;;;;;;1.38;1.20;;;16.80;50.70;;;;;;4974516;28;20055;-56
2021/04/29 00:06:41;;;;;;;3.17;1.38;;;16.80;73.80;;;;;;4974598;28;20033;-54
2021/04/29 00:09:07;;;;;;;3.92;1.35;;;16.70;50.70;;;;;;4974515;28;20031;-54
2021/04/29 00:11:34;;;;;;;1.40;1.30;;;16.70;74.70;;;;;;4974541;28;20026;-51
2021/04/29 00:14:01;;;;;;;1.85;1.33;;;16.80;50.70;;;;;;4974476;28;20030;-54
2021/04/29 00:16:27;;;;;;;2.47;1.15;;;16.50;73.70;;;;;;4974414;28;20057;-51
2021/04/29 00:18:53;;;;;;;1.52;1.13;;;16.70;73.80;;;;;;4957032;28;20050;-54
2021/04/29 00:21:19;;;;;;;1.88;1.30;;;16.70;50.70;;;;;;4941088;28;20046;-54
2021/04/29 00:23:46;;;;;;;1.90;1.35;;;16.50;73.80;;;;;;4974317;28;20088;-53
2021/04/29 00:26:12;;;;;;;2.42;1.30;;;16.80;73.50;;;;;;4974565;28;20421;-54
2021/04/29 00:28:37;;;;;;;2.70;1.20;;;16.70;50.80;;;;;;4974396;28;20043;-51
2021/04/29 00:31:03;;;;;;;1.73;1.20;;;16.70;50.70;;;;;;4940994;28;20030;-55
2021/04/29 00:33:29;;;;;;;1.33;1.10;;;17.00;73.80;;;;;;4974123;28;20386;-54
2021/04/29 00:35:55;;;;;;;1.35;1.10;;;16.80;74.00;;;;;;4974133;28;20386;-54
2021/04/29 00:38:20;;;;;;;2.30;1.50;;;16.40;50.60;;;;;;4974065;28;20184;-54
2021/04/29 00:40:46;;;;;;;1.73;1.23;;;16.50;73.50;;;;;;4974290;28;20027;-55
2021/04/29 00:43:13;;;;;;;1.35;1.20;;;16.60;50.80;;;;;;4974262;28;20363;-53
2021/04/29 00:45:40;;;;;;;1.95;1.35;;;16.70;74.10;;;;;;4973988;28;20030;-53
2021/04/29 00:48:06;;;;;;;1.17;1.08;;;16.70;50.80;;;;;;4973893;28;20039;-52
2021/04/29 00:50:32;;;;;;;1.25;1.00;;;16.60;74.30;;;;;;4973907;28;20098;-52
2021/04/29 00:52:57;;;;;;;1.65;1.13;;;16.70;50.80;;;;;;4973694;28;20023;-53
2021/04/29 00:55:23;;;;;;;1.55;1.17;;;16.60;75.10;;;;;;4973948;28;20019;-53
2021/04/29 00:57:49;;;;;;;2.72;1.27;;;16.60;50.80;;;;;;4956573;28;20058;-52
2021/04/29 01:00:17;;;;;;;2.85;1.30;;;16.70;74.10;;;;;;4956581;28;20019;-53
2021/04/29 01:02:52;;;;;;;1.70;1.30;;;16.70;73.70;;;;;;4973720;28;20033;-54
2021/04/29 01:05:28;;;;;;;2.70;1.65;;;16.70;50.40;;;;;;4973693;28;20043;-54
2021/04/29 01:08:01;;;;;;;1.50;1.27;;;16.50;50.80;;;;;;4974057;28;20038;-55
2021/04/29 01:10:33;;;;;;;2.05;1.15;;;16.70;74.00;;;;;;4974073;28;20533;-53
2021/04/29 01:13:11;;;;;;;2.55;1.67;;;16.60;50.90;;;;;;4973802;28;20035;-54
2021/04/29 01:15:42;;;;;;;2.33;1.60;;;16.70;74.50;;;;;;4957232;28;20034;-53
2021/04/29 01:18:09;;;;;;;1.80;1.10;;;16.70;74.20;;;;;;4973656;28;20014;-53
2021/04/29 01:20:50;;;;;;;1.65;1.15;;;16.70;50.40;;;;;;4973843;28;20042;-54
2021/04/29 01:23:44;;;;;;;1.75;1.30;;;16.60;73.90;;;;;;4973601;28;20061;-53
2021/04/29 01:26:37;;;;;;;2.03;1.27;;;16.70;74.20;;;;;;4956268;28;20110;-53
2021/04/29 01:29:08;;;;;;;2.80;1.08;;;16.60;50.90;;;;;;4973603;28;20386;-53
2021/04/29 01:31:36;;;;;;;1.52;1.20;;;16.60;51.00;;;;;;4973575;28;20023;-55
2021/04/29 01:34:04;;;;;;;3.03;1.33;;;16.70;51.00;;;;;;4973543;28;20488;-54
2021/04/29 01:36:31;;;;;;;1.20;1.10;;;16.60;51.00;;;;;;4973385;28;20059;-54
2021/04/29 01:38:58;;;;;;;3.65;1.92;;;16.60;51.00;;;;;;4973696;28;20110;-54
2021/04/29 01:41:25;;;;;;;2.10;1.17;;;16.50;74.10;;;;;;4973751;28;20101;-54
2021/04/29 01:43:51;;;;;;;1.38;1.17;;;16.70;73.90;;;;;;4973385;28;20082;-54
2021/04/29 01:46:17;;;;;;;1.55;1.20;;;16.60;51.00;;;;;;4973478;28;20022;-54
2021/04/29 01:48:43;;;;;;;2.25;1.10;;;16.60;51.10;;;;;;4973523;28;20031;-53
2021/04/29 01:51:10;;;;;;;1.40;1.23;;;16.60;74.20;;;;;;4973660;28;20026;-54
2021/04/29 01:53:36;;;;;;;1.30;1.20;;;16.60;51.10;;;;;;4973434;28;20027;-54
2021/04/29 01:56:02;;;;;;;1.60;1.30;;;16.60;51.10;;;;;;4973331;28;20023;-51
2021/04/29 01:58:28;;;;;;;1.10;1.00;;;16.60;74.20;;;;;;4955928;28;20031;-55
2021/04/29 02:00:53;;;;;;;1.55;1.10;;;16.50;74.10;;;;;;4973351;28;20485;-53
2021/04/29 02:03:19;;;;;;;2.17;1.48;;;16.50;74.10;;;;;;4973226;28;20023;-53
2021/04/29 02:05:45;;;;;;;2.42;1.33;;;16.50;74.00;;;;;;4975557;28;20501;-54
2021/04/29 02:08:11;;;;;;;1.58;1.25;;;16.50;51.20;;;;;;4976657;28;20039;-54
2021/04/29 02:10:37;;;;;;;1.77;1.50;;;16.40;74.10;;;;;;4976964;28;20098;-54
2021/04/29 02:13:07;;;;;;;1.75;1.30;;;16.50;51.20;;;;;;4976746;28;20030;-54
2021/04/29 02:15:36;;;;;;;;;;;16.50;51.20;;;;;;4977440;28;20023;-53
2021/04/29 02:18:22;;;;;;;1.70;1.40;;;16.50;51.20;;;;;;4976683;28;20369;-54
2021/04/29 02:20:50;;;;;;;1.45;1.30;;;16.60;74.50;;;;;;4976836;28;20026;-53
2021/04/29 02:23:20;;;;;;;1.17;0.95;;;16.40;61.20;;;;;;4976507;28;20106;-53
2021/04/29 02:25:48;;;;;;;1.98;1.20;;;16.70;74.60;;;;;;4959160;28;20215;-54
2021/04/29 02:28:15;;;;;;;2.10;1.27;;;16.50;51.30;;;;;;4959291;28;20035;-54
2021/04/29 02:30:42;;;;;;;1.65;1.08;;;16.40;51.20;;;;;;4976598;28;20026;-54
2021/04/29 02:33:10;;;;;;;1.40;1.30;;;16.20;51.10;;;;;;4976330;28;20062;-53
2021/04/29 02:35:36;;;;;;;1.80;1.33;;;16.50;51.30;;;;;;4958842;28;20043;-53
2021/04/29 02:38:02;;;;;;;1.65;1.20;;;16.50;51.30;;;;;;4976456;28;20046;-50
2021/04/29 02:40:28;;;;;;;2.13;1.42;;;16.50;51.30;;;;;;4958984;28;20077;-54
2021/04/29 02:42:54;;;;;;;1.73;1.17;;;16.40;73.90;;;;;;4976171;28;20105;-51
2021/04/29 02:45:21;;;;;;;2.25;1.58;;;16.50;51.40;;;;;;4976134;28;20055;-54
2021/04/29 02:47:49;;;;;;;2.20;1.55;;;16.50;51.40;;;;;;4976156;28;20031;-54
2021/04/29 02:50:18;;;;;;;3.28;1.40;;;16.90;51.60;;;;;;4975982;28;20023;-53
2021/04/29 02:52:45;;;;;;;1.27;1.10;;;16.40;51.30;;;;;;4976282;28;20058;-53
2021/04/29 02:55:12;;;;;;;1.77;1.30;;;16.00;51.10;;;;;;4958539;28;20027;-54
2021/04/29 02:57:38;;;;;;;1.80;1.45;;;16.20;51.20;;;;;;4958507;28;20027;-53
2021/04/29 03:00:06;;;;;;;2.28;1.50;;;16.40;51.40;;;;;;4975837;28;20023;-54
2021/04/29 03:02:31;;;;;;;2.25;1.40;;;16.40;74.30;;;;;;4958438;28;20019;-54
2021/04/29 03:04:57;;;;;;;2.55;1.60;;;16.40;74.10;;;;;;4975558;28;20082;-53
2021/04/29 03:07:23;;;;;;;2.40;1.30;;;16.40;51.40;;;;;;4975556;28;20077;-53
2021/04/29 03:09:48;;;;;;;2.78;1.40;;;16.30;51.30;;;;;;4975645;28;20035;-53
2021/04/29 03:12:14;;;;;;;2.83;1.55;;;16.50;74.20;;;;;;4975545;28;20441;-54
2021/04/29 03:14:40;;;;;;;2.42;1.73;;;16.40;74.20;;;;;;4975570;28;20082;-51
2021/04/29 03:17:06;;;;;;;2.45;1.60;;;16.50;74.30;;;;;;4975135;28;20030;-53
2021/04/29 03:19:31;;;;;;;2.80;1.52;;;16.50;74.30;;;;;;4975689;28;20626;-53
2021/04/29 03:21:57;;;;;;;1.85;1.65;;;16.40;51.40;;;;;;4975716;28;20508;-53
2021/04/29 03:24:22;;;;;;;2.13;1.10;;;16.30;74.20;;;;;;4975378;28;20494;-54
2021/04/29 03:26:48;;;;;;;2.83;1.33;;;16.40;51.50;;;;;;4957932;28;20109;-53
2021/04/29 03:29:14;;;;;;;2.92;1.70;;;16.30;51.50;;;;;;4975312;28;20093;-53
2021/04/29 03:31:39;;;;;;;1.58;1.23;;;16.40;74.30;;;;;;4958029;28;20041;-54
2021/04/29 03:34:05;;;;;;;1.70;1.60;;;16.30;51.40;;;;;;4975360;28;20038;-51
2021/04/29 03:36:31;;;;;;;2.50;1.85;;;16.50;73.90;;;;;;4975125;28;20355;-53
2021/04/29 03:38:57;;;;;;;2.50;1.27;;;16.20;73.90;;;;;;4975058;28;20026;-53
2021/04/29 03:41:22;;;;;;;2.10;1.50;;;16.30;51.50;;;;;;4975335;28;20058;-53
2021/04/29 03:43:48;;;;;;;2.25;1.10;;;16.40;74.10;;;;;;4974997;28;20027;-54
2021/04/29 03:46:14;;;;;;;2.70;1.70;;;16.30;74.00;;;;;;4957602;28;20034;-54
2021/04/29 03:48:39;;;;;;;2.95;1.50;;;16.30;51.60;;;;;;4957479;28;20405;-54
2021/04/29 03:51:05;;;;;;;2.63;1.45;;;16.30;51.60;;;;;;4974922;28;20030;-53
2021/04/29 03:53:31;;;;;;;4.05;1.52;;;16.30;74.10;;;;;;4974878;28;20109;-54
2021/04/29 03:55:57;;;;;;;1.67;1.40;;;16.00;51.50;;;;;;4975041;28;20081;-54
2021/04/29 03:58:23;;;;;;;1.88;1.38;;;16.20;51.60;;;;;;4974899;28;20022;-51
2021/04/29 04:00:49;;;;;;;1.40;1.17;;;16.30;51.70;;;;;;4974731;28;20105;-52
2021/04/29 04:03:14;;;;;;;2.75;1.60;;;16.20;74.00;;;;;;4974990;28;20446;-54
2021/04/29 04:05:40;;;;;;;1.83;1.30;;;16.70;51.90;;;;;;4974496;28;20093;-54
2021/04/29 04:08:06;;;;;;;2.47;1.40;;;16.20;51.60;;;;;;4974694;28;20031;-52
2021/04/29 04:10:31;;;;;;;2.08;1.67;;;16.20;74.10;;;;;;4974870;28;20015;-53
2021/04/29 04:12:57;;;;;;;2.78;1.42;;;16.30;51.70;;;;;;4974537;28;20557;-54
2021/04/29 04:15:23;;;;;;;4.47;1.67;;;16.20;74.20;;;;;;4974406;28;20023;-54
2021/04/29 04:17:48;;;;;;;2.78;1.17;;;16.30;74.40;;;;;;4974687;28;20027;-54
2021/04/29 04:20:14;;;;;;;4.05;1.67;;;16.20;51.70;;;;;;4957215;28;20029;-50
2021/04/29 04:22:40;;;;;;;1.40;1.30;;;16.30;74.70;;;;;;4956999;28;20025;-54
2021/04/29 04:25:06;;;;;;;2.15;1.20;;;16.20;51.70;;;;;;4974552;28;20063;-51
2021/04/29 04:27:32;;;;;;;2.63;1.50;;;16.30;74.30;;;;;;4973683;28;20043;-54
2021/04/29 04:29:58;;;;;;;4.85;1.85;;;16.20;51.80;;;;;;4974266;28;20027;-54
2021/04/29 04:32:23;;;;;;;3.47;1.33;;;16.20;74.40;;;;;;4974406;28;20105;-53
2021/04/29 04:34:49;;;;;;;3.85;1.52;;;16.30;74.40;;;;;;4974175;28;20063;-54
2021/04/29 04:37:15;;;;;;;3.20;1.55;;;16.10;74.50;;;;;;4974269;28;20415;-51
2021/04/29 04:39:40;;;;;;;3.08;1.70;;;16.20;51.80;;;;;;4974144;28;20023;-53
2021/04/29 04:42:06;;;;;;;4.53;1.70;;;16.10;51.70;;;;;;4974083;28;20097;-54
2021/04/29 04:44:32;;;;;;;2.97;1.77;;;16.30;74.40;;;;;;4974291;28;20378;-52
2021/04/29 04:46:57;;;;;;;1.15;1.05;;;16.20;51.90;;;;;;4974189;28;20058;-54
2021/04/29 04:49:23;;;;;;;1.60;1.50;;;16.20;51.90;;;;;;4973994;28;20023;-54
2021/04/29 04:51:48;;;;;;;2.60;1.35;;;16.20;74.30;;;;;;4974012;28;20019;-53
2021/04/29 04:54:17;;;;;;;3.97;1.77;;;16.10;51.90;;;;;;4973941;28;20502;-52
2021/04/29 04:56:45;;;;;;;3.00;1.60;;;16.10;51.90;;;;;;4956551;28;20019;-54
2021/04/29 04:59:11;;;;;;;2.58;1.38;;;16.20;74.60;;;;;;4957194;28;20027;-54
2021/04/29 05:01:36;;;;;;;2.60;1.58;;;16.10;51.90;;;;;;4973804;28;20034;-54
2021/04/29 05:04:02;;;;;;;2.47;1.60;;;16.10;51.90;;;;;;4973576;28;20050;-54
2021/04/29 05:06:28;;;;;;;1.58;1.25;;;16.10;51.90;;;;;;4974029;28;20062;-52
2021/04/29 05:08:53;;;;;;;2.65;1.45;;;16.10;52.00;;;;;;4973642;28;20035;-53
2021/04/29 05:11:19;;;;;;;2.42;1.30;;;16.10;52.00;;;;;;4973710;28;20026;-54
2021/04/29 05:13:44;;;;;;;3.53;1.40;;;16.30;74.40;;;;;;4973618;28;20034;-54
2021/04/29 05:16:10;;;;;;;3.63;1.67;;;16.40;52.20;;;;;;4973832;28;20029;-54
2021/04/29 05:18:36;;;;;;;3.70;1.88;;;;;;;;;;4973577;28;20023;-50
2021/04/29 05:21:02;;;;;;;2.38;1.42;;;16.10;51.50;;;;;;4956257;28;20033;-54
2021/04/29 05:23:28;;;;;;;3.30;1.98;;;16.10;52.00;;;;;;4973524;28;20027;-54
2021/04/29 05:25:53;;;;;;;2.55;1.52;;;16.20;74.60;;;;;;4973873;28;20046;-54
2021/04/29 05:28:19;;;;;;;2.55;1.58;;;16.10;74.30;;;;;;4973427;28;20532;-54
2021/04/29 05:30:44;;;;;;;5.20;2.08;;;16.10;52.00;;;;;;4973435;28;20027;-54
2021/04/29 05:33:10;;;;;;;3.92;1.65;;;16.10;74.40;;;;;;4973631;28;20022;-54
2021/04/29 05:35:35;;;;;;;3.33;1.73;;;15.90;51.90;;;;;;4956092;28;20015;-53
2021/04/29 05:38:01;;;;;;;3.85;1.88;;;16.10;52.00;;;;;;4973611;28;20038;-53
2021/04/29 05:40:26;;;;;;;3.30;1.60;;;16.10;51.90;;;;;;4977324;28;20035;-52
2021/04/29 05:42:52;;;;;;;4.10;2.13;;;16.10;74.30;;;;;;4977481;28;20113;-55
2021/04/29 05:45:18;;;;;;;3.88;2.10;;;16.40;52.10;;;;;;4959867;28;20027;-54
2021/04/29 05:47:44;;;;;;;3.70;1.80;;;16.00;74.00;;;;;;4977062;28;20045;-53
2021/04/29 05:50:10;;;;;;;4.28;1.80;;;16.10;51.80;;;;;;4977056;28;20034;-55
2021/04/29 05:52:36;;;;;;;5.47;1.33;;;16.20;74.60;;;;;;4977057;28;20026;-55
2021/04/29 05:55:02;;;;;;;4.00;1.58;;;16.00;52.10;;;;;;4959762;28;20073;-54
2021/04/29 05:57:28;;;;;;;4.18;1.88;;;15.80;51.90;;;;;;4977164;28;20125;-54
2021/04/29 05:59:53;;;;;;;5.07;1.70;;;16.10;52.10;;;;;;4976898;28;20491;-54
2021/04/29 06:02:19;;;;;;;2.63;1.75;;;16.10;74.60;;;;;;4976930;28;20031;-53
2021/04/29 06:04:44;;;;;;;4.88;1.95;;;16.00;52.30;;;;;;4943346;28;20090;-53
2021/04/29 06:07:11;;;;;;;2.75;1.70;;;16.00;52.30;;;;;;4959508;28;20026;-54
2021/04/29 06:09:36;;;;;;;6.45;1.90;;;16.00;52.40;;;;;;4976741;28;20037;-52
2021/04/29 06:12:02;;;;;;;4.55;1.63;;;16.10;75.00;;;;;;4976737;28;20019;-54
2021/04/29 06:14:28;;;;;;;4.13;1.88;;;16.00;52.40;;;;;;4959250;28;20481;-53
2021/04/29 06:16:54;;;;;;;5.35;1.60;;;16.00;52.50;;;;;;4959380;28;20030;-54
2021/04/29 06:19:20;;;;;;;5.10;1.88;;;16.00;52.50;;;;;;4976514;28;20026;-54
2021/04/29 06:21:46;;;;;;;4.97;1.88;;;16.10;75.30;;;;;;4976553;28;20026;-53
2021/04/29 06:24:12;;;;;;;3.85;1.88;;;15.70;52.40;;;;;;4976754;28;20537;-54
2021/04/29 06:26:38;;;;;;;3.92;2.00;;;16.00;52.60;;;;;;4976552;28;20085;-54
2021/04/29 06:29:04;;;;;;;5.53;1.90;;;16.00;52.70;;;;;;4976403;28;20039;-54
2021/04/29 06:31:30;;;;;;;4.40;2.17;;;15.90;52.70;;;;;;4976321;28;20022;-52
2021/04/29 06:33:55;;;;;;;6.47;2.15;;;16.00;52.80;;;;;;4976350;28;20026;-54
2021/04/29 06:36:21;;;;;;;4.75;2.20;;;16.00;75.20;;;;;;4976135;28;20023;-51
2021/04/29 06:38:46;;;;;;;6.30;1.83;;;16.00;75.70;;;;;;4976523;28;20074;-52
2021/04/29 06:41:12;;;;;;;4.40;2.20;;;15.90;52.80;;;;;;4976545;28;20030;-51
2021/04/29 06:43:38;;;;;;;4.88;2.20;;;15.90;52.90;;;;;;4976459;28;20023;-51
2021/04/29 06:46:04;;;;;;;3.92;2.28;;;15.90;52.80;;;;;;4976140;28;20169;-53
2021/04/29 06:48:29;;;;;;;7.28;2.10;;;15.90;52.90;;;;;;4976031;28;20035;-50
2021/04/29 06:50:55;;;;;;;4.40;2.15;;;15.90;52.90;;;;;;4975382;28;20025;-54
2021/04/29 06:53:21;;;;;;;2.95;1.67;;;15.90;52.70;;;;;;4975907;28;20162;-54
2021/04/29 06:55:48;;;;;;;5.65;1.55;;;15.70;52.80;;;;;;4976254;28;20105;-53
2021/04/29 06:58:13;;;;;;;8.63;2.42;;;15.90;53.00;;;;;;4975909;28;20027;-54
2021/04/29 07:00:39;;;;;;;4.93;2.30;;;16.20;75.80;;;;;;4975755;28;20033;-53
2021/04/29 07:03:05;;;;;;;8.10;2.58;;;15.90;53.10;;;;;;4976040;28;20085;-53
2021/04/29 07:05:30;;;;;;;7.35;2.63;;;16.00;53.10;;;;;;4975579;28;20042;-54
2021/04/29 07:07:56;;;;;;;5.70;3.10;;;15.90;53.10;;;;;;4976005;28;20027;-54
2021/04/29 07:10:23;;;;;;;4.22;2.65;;;15.70;53.10;;;;;;4975963;28;20101;-53
2021/04/29 07:12:49;;;;;;;3.83;2.42;;;16.00;53.30;;;;;;4975982;28;20362;-55
2021/04/29 07:15:16;;;;;;;7.22;2.67;;;16.20;53.40;;;;;;4975738;28;20022;-53
2021/04/29 07:17:42;;;;;;;5.95;2.90;;;15.90;75.90;;;;;;4975853;28;20065;-54
2021/04/29 07:20:09;;;;;;;4.88;2.60;;;15.90;75.80;;;;;;4975575;28;20086;-54
2021/04/29 07:22:35;;;;;;;8.63;3.40;;;15.90;53.40;;;;;;4975451;28;20474;-56
2021/04/29 07:25:02;;;;;;;3.95;2.65;;;15.70;76.60;;;;;;4975438;28;20106;-55
2021/04/29 07:27:27;;;;;;;5.45;2.28;;;15.90;53.50;;;;;;4975348;28;20054;-55
2021/04/29 07:29:53;;;;;;;3.38;2.10;;;15.90;76.00;;;;;;4975417;28;20050;-56
2021/04/29 07:32:19;;;;;;;5.10;2.67;;;15.90;76.10;;;;;;4975517;28;20105;-55
2021/04/29 07:34:44;;;;;;;6.10;2.22;;;15.90;53.50;;;;;;4975327;28;20023;-55
2021/04/29 07:37:10;;;;;;;5.38;2.50;;;15.70;76.30;;;;;;4975559;28;20190;-55
2021/04/29 07:39:36;;;;;;;7.25;2.75;;;15.50;53.30;;;;;;4975260;28;20050;-55
2021/04/29 07:42:02;;;;;;;4.95;2.60;;;15.90;53.60;;;;;;4975120;28;20023;-55
2021/04/29 07:44:28;;;;;;;3.97;2.17;;;15.80;53.40;;;;;;4975143;28;20023;-56
2021/04/29 07:46:53;;;;;;;8.15;2.10;;;15.90;53.50;;;;;;4974991;28;20023;-55
2021/04/29 07:49:19;;;;;;;3.58;2.30;;;15.80;53.50;;;;;;4975260;28;20026;-55
2021/04/29 07:51:45;;;;;;;4.28;1.90;;;15.80;53.50;;;;;;4975294;28;20019;-55
2021/04/29 07:54:14;;;;;;;4.18;2.08;;;15.90;76.40;;;;;;4975304;28;20117;-58
2021/04/29 07:56:40;;;;;;;4.38;1.90;;;15.80;53.40;;;;;;4974999;28;20015;-55
2021/04/29 07:59:05;;;;;;;3.53;2.17;;;15.80;53.40;;;;;;4975285;28;20471;-56
2021/04/29 08:01:31;;;;;;;5.15;2.30;;;15.80;53.40;;;;;;4974978;28;20059;-55
2021/04/29 08:04:00;;;;;;;3.38;1.95;;;16.10;53.50;;;;;;4974817;28;20557;-57
2021/04/29 08:06:26;;;;;;;4.05;1.88;;;16.00;53.40;;;;;;4974731;28;20019;-54
2021/04/29 08:08:52;;;;;;;6.63;2.05;;;16.00;53.80;;;;;;4974586;28;20039;-56
2021/04/29 08:11:18;;;;;;;4.70;2.10;;;16.00;53.50;;;;;;4974810;28;20047;-55
2021/04/29 08:13:44;;;;;;;6.13;2.53;;;16.10;53.50;;;;;;4974419;28;20117;-56
2021/04/29 08:16:10;;;;;;;6.88;1.85;;;16.10;53.30;;;;;;4957303;28;20061;-53
2021/04/29 08:18:36;;;;;;;7.28;2.38;;;16.20;53.50;;;;;;4974789;28;20481;-55
2021/04/29 08:21:03;;;;;;;2.72;1.90;;;16.20;53.40;;;;;;4974923;28;20474;-56
2021/04/29 08:23:29;;;;;;;4.07;2.20;;;16.00;53.20;;;;;;4974905;28;20081;-55
2021/04/29 08:25:55;;;;;;;2.20;1.73;;;16.30;53.00;;;;;;4974380;28;20138;-58
2021/04/29 08:28:21;;;;;;;5.93;2.83;;;16.40;53.10;;;;;;4974770;28;20151;-56
2021/04/29 08:30:46;;;;;;;4.38;1.92;;;16.30;52.80;;;;;;4974379;28;20030;-54
2021/04/29 08:33:12;;;;;;;4.15;1.80;;;16.40;53.20;;;;;;4974195;28;20031;-57
2021/04/29 08:35:38;;;;;;;4.70;2.03;;;16.40;53.20;;;;;;4974414;28;20042;-55
2021/04/29 08:38:03;;;;;;;4.10;2.22;;;16.50;53.30;;;;;;4974470;28;20475;-57
2021/04/29 08:40:30;;;;;;;3.15;2.05;;;16.20;52.80;;;;;;4957022;28;20051;-57
2021/04/29 08:42:56;;;;;;;4.78;2.30;;;16.50;52.90;;;;;;4956977;28;20027;-57
2021/04/29 08:45:23;;;;;;;2.38;2.13;;;17.00;53.30;;;;;;4974279;28;20037;-57
2021/04/29 08:47:56;;;;;;;3.65;1.92;;;16.60;52.90;;;;;;4973886;28;20565;-56
2021/04/29 08:50:24;;;;;;;2.83;1.90;;;16.60;52.70;;;;;;4956993;28;20023;-56
2021/04/29 08:52:49;;;;;;;4.20;2.22;;;16.60;52.60;;;;;;4956724;28;20031;-57
2021/04/29 08:55:20;;;;;;;2.60;2.00;;;16.60;52.60;;;;;;4974192;28;20026;-58
2021/04/29 08:57:47;;;;;;;4.40;2.13;;;16.60;52.60;;;;;;4974060;28;20022;-57
2021/04/29 09:00:14;;;;;;;4.68;2.63;;;16.70;52.70;;;;;;4973884;28;20484;-57
2021/04/29 09:02:40;;;;;;;3.38;2.08;;;16.80;76.40;;;;;;4974018;28;20026;-56
2021/04/29 09:05:16;;;;;;;4.88;2.17;;;16.70;52.60;;;;;;4973663;28;20051;-57
2021/04/29 09:08:14;;;;;;;4.00;1.88;;;16.70;52.90;;;;;;4973948;28;20039;-57
2021/04/29 09:10:41;;;;;;;5.45;1.67;;;16.70;52.20;;;;;;4941117;28;20593;-54
2021/04/29 09:13:17;;;;;;;4.93;2.33;;;16.80;53.00;;;;;;4974805;28;20050;-57
2021/04/29 09:15:43;;;;;;;8.75;2.05;;;16.80;52.50;;;;;;4980189;28;20043;-57
2021/04/29 09:18:11;;;;;;;7.65;2.67;;;17.40;53.00;;;;;;4980375;28;20029;-58
2021/04/29 09:20:38;;;;;;;10.27;2.65;;;16.80;52.40;;;;;;4962980;28;20118;-57
2021/04/29 09:23:07;;;;;;;6.03;1.90;;;16.70;52.10;;;;;;4980346;28;20026;-57
2021/04/29 09:25:35;;;;;;;5.80;2.47;;;16.80;52.20;;;;;;4980343;28;20023;-58
2021/04/29 09:28:02;;;;;;;10.65;2.10;;;16.80;52.20;;;;;;4980075;28;20111;-55
2021/04/29 09:30:29;;;;;;;7.30;2.30;;;16.80;52.10;;;;;;4980300;28;20022;-57
2021/04/29 09:33:01;;;;;;;4.72;2.08;;;16.70;52.30;;;;;;4979890;28;20030;-56
2021/04/29 09:35:28;;;;;;;6.80;2.25;;;16.80;52.30;;;;;;4979992;28;20035;-56
2021/04/29 09:37:59;;;;;;;10.60;2.38;;;16.90;52.30;;;;;;4980257;28;20371;-56
2021/04/29 09:40:29;;;;;;;4.75;2.13;;;16.70;75.60;;;;;;4962887;28;20077;-57
2021/04/29 09:42:57;;;;;;;2.33;1.60;;;16.50;52.00;;;;;;4979993;28;20074;-56
2021/04/29 09:45:32;;;;;;;5.18;2.40;;;17.30;52.30;;;;;;4979872;28;20023;-57
2021/04/29 09:47:59;;;;;;;5.30;1.75;;;16.90;52.20;;;;;;4980140;28;20039;-56
2021/04/29 09:50:27;;;;;;;7.10;2.13;;;16.80;52.30;;;;;;4962533;28;20023;-55
2021/04/29 09:53:22;;;;;;;8.27;2.17;;;16.90;52.10;;;;;;4979742;28;20058;-57
2021/04/29 09:55:48;;;;;;;4.75;2.25;;;16.90;52.40;;;;;;4963216;28;20514;-57
2021/04/29 09:58:17;;;;;;;6.35;2.30;;;16.90;52.40;;;;;;4962493;28;20028;-57
2021/04/29 10:00:50;;;;;;;3.55;2.42;;;16.90;76.00;;;;;;4979837;28;20015;-57
2021/04/29 10:03:17;;;;;;;7.38;2.38;;;16.90;52.30;;;;;;4980096;28;20049;-57
2021/04/29 10:05:45;;;;;;;3.50;2.08;;;16.70;52.10;;;;;;4979493;28;20390;-57
2021/04/29 10:08:13;;;;;;;6.22;1.83;;;16.90;52.20;;;;;;4979716;28;20089;-57
2021/04/29 10:10:48;;;;;;;3.80;1.95;;;16.70;52.00;;;;;;4979712;28;20031;-57
2021/04/29 10:13:18;;;;;;;6.03;2.78;;;16.90;52.10;;;;;;4979991;28;20050;-57
2021/04/29 10:15:44;;;;;;;3.08;1.80;;;16.90;52.10;;;;;;4979696;28;20282;-57
2021/04/29 10:18:12;;;;;;;7.07;2.28;;;16.70;52.10;;;;;;4979894;28;20023;-56
2021/04/29 10:20:39;;;;;;;3.47;1.92;;;17.00;52.10;;;;;;4979514;28;20023;-57
2021/04/29 10:23:10;;;;;;;3.65;2.13;;;16.90;52.00;;;;;;4962173;28;20109;-57
2021/04/29 10:25:36;;;;;;;3.72;1.85;;;17.00;52.20;;;;;;4976639;28;20034;-57
2021/04/29 10:28:03;;;;;;;4.43;2.13;;;16.70;51.90;;;;;;4976595;28;20031;-57
2021/04/29 10:30:39;;;;;;;7.15;2.20;;;16.90;52.20;;;;;;4976448;28;20023;-56
2021/04/29 10:33:19;;;;;;;5.35;2.08;;;16.80;52.20;;;;;;4976604;28;20406;-55
2021/04/29 10:35:51;;;;;;;;;;;16.80;52.30;;;;;;4976726;28;20474;-55
2021/04/29 10:38:34;;;;;;;6.88;2.35;;;16.70;52.30;;;;;;4976638;28;19912;-55
2021/04/29 10:41:21;;;;;;;7.20;2.25;;;16.70;52.30;;;;;;4976422;28;20359;-55
2021/04/29 10:43:47;;;;;;;2.78;1.98;;;16.60;52.40;;;;;;4976312;28;20030;-54
2021/04/29 10:46:25;;;;;;;5.82;1.90;;;16.60;52.50;;;;;;4975943;28;20031;-55
2021/04/29 10:48:52;;;;;;;5.32;2.67;;;16.60;52.60;;;;;;4976132;28;20035;-57
2021/04/29 10:51:30;;;;;;;3.28;1.80;;;16.40;52.40;;;;;;4976165;28;20058;-54
2021/04/29 10:54:25;;;;;;;4.25;2.17;;;16.50;52.60;;;;;;4976175;28;20062;-56
2021/04/29 10:57:06;;;;;;;3.25;2.00;;;16.40;76.80;;;;;;4976337;28;20047;-56
2021/04/29 10:59:44;;;;;;;4.45;2.22;;;16.40;52.50;;;;;;4975944;28;20047;-57
2021/04/29 11:02:31;;;;;;;4.15;2.10;;;16.40;52.60;;;;;;4975882;28;20028;-57
2021/04/29 11:04:57;;;;;;;4.35;2.35;;;16.30;52.60;;;;;;4975955;28;20053;-57
2021/04/29 11:07:25;;;;;;;5.03;2.45;;;16.30;52.70;;;;;;4975662;28;20027;-55
2021/04/29 11:10:06;;;;;;;6.88;2.17;;;16.40;76.50;;;;;;4975732;28;20050;-55
2021/04/29 11:12:45;;;;;;;4.10;2.17;;;16.30;52.60;;;;;;4975787;28;20482;-55
2021/04/29 11:15:19;;;;;;;3.45;1.77;;;16.30;52.70;;;;;;4975956;28;20038;-55
2021/04/29 11:17:45;;;;;;;4.22;1.88;;;16.20;52.70;;;;;;4975686;28;20386;-55
2021/04/29 11:20:11;;;;;;;4.68;2.00;;;16.20;52.70;;;;;;4975593;28;20027;-55
2021/04/29 11:22:38;;;;;;;2.05;1.70;;;16.20;52.70;;;;;;4975831;28;20415;-55
2021/04/29 11:25:11;;;;;;;3.85;2.30;;;16.20;52.80;;;;;;4975434;28;20030;-55
2021/04/29 11:27:38;;;;;;;3.13;1.70;;;16.20;52.90;;;;;;4975450;28;20062;-59
2021/04/29 11:30:12;;;;;;;4.13;2.13;;;16.20;52.80;;;;;;4975432;28;20025;-56
2021/04/29 11:32:39;;;;;;;6.32;2.15;;;16.20;52.80;;;;;;4958258;28;20023;-55
2021/04/29 11:35:18;;;;;;;6.45;1.70;;;16.20;53.10;;;;;;4975459;28;20023;-55
2021/04/29 11:37:44;;;;;;;2.45;1.70;;;16.20;53.00;;;;;;4975026;28;20494;-55
2021/04/29 11:40:13;;;;;;;4.20;2.17;;;16.30;53.10;;;;;;4975193;28;20015;-55
2021/04/29 11:42:42;;;;;;;6.25;2.10;;;16.20;53.50;;;;;;4975437;28;20034;-55
2021/04/29 11:45:13;;;;;;;11.77;2.45;;;16.30;53.80;;;;;;4975495;28;20029;-56
2021/04/29 11:47:51;;;;;;;5.22;2.40;;;16.30;53.90;;;;;;4975256;28;20426;-56
2021/04/29 11:50:23;;;;;;;11.85;2.10;;;16.30;53.80;;;;;;4957763;28;20034;-55
2021/04/29 11:52:50;;;;;;;6.00;2.38;;;16.30;54.10;;;;;;4957593;28;20093;-54
2021/04/29 11:55:25;;;;;;;6.22;2.22;;;16.30;54.70;;;;;;4974879;28;20110;-55
2021/04/29 11:57:51;;;;;;;6.15;1.92;;;16.30;54.40;;;;;;4974869;28;20030;-38
2021/04/29 12:00:18;;;;;;;9.05;2.60;;;16.30;77.50;;;;;;4974883;28;20394;-41
2021/04/29 12:02:55;;;;;;;8.68;2.30;;;16.20;53.80;;;;;;4974634;28;20066;-41
2021/04/29 12:05:49;;;;;;;7.75;2.20;;;16.30;53.90;;;;;;4974609;28;20129;-40
2021/04/29 12:08:23;;;;;;;8.63;2.40;;;17.00;54.00;;;;;;4974701;28;20030;-40
2021/04/29 12:10:51;;;;;;;8.60;2.58;;;16.30;53.80;;;;;;4974866;28;20046;-41
2021/04/29 12:13:38;;;;;;;10.48;2.25;;;16.30;53.80;;;;;;4957302;28;20069;-40
2021/04/29 12:16:11;;;;;;;5.32;1.90;;;16.40;76.60;;;;;;4974882;28;20102;-41
2021/04/29 12:18:48;;;;;;;7.22;2.25;;;16.40;53.60;;;;;;4974869;28;20106;-41
2021/04/29 12:21:14;;;;;;;5.68;2.00;;;16.50;77.20;;;;;;4974667;28;20023;-41
2021/04/29 12:23:40;;;;;;;9.00;1.80;;;16.50;54.10;;;;;;4974364;28;20101;-41
2021/04/29 12:26:11;;;;;;;17.25;2.92;;;16.70;77.40;;;;;;4974625;28;20451;-39
2021/04/29 12:28:42;;;;;;;3.28;1.50;;;16.70;54.20;;;;;;4974597;28;20057;-39
2021/04/29 12:31:14;;;;;;;5.13;2.00;;;16.70;54.10;;;;;;4974463;28;20072;-39
2021/04/29 12:33:55;;;;;;;7.80;1.88;;;16.70;54.50;;;;;;4974514;28;20035;-40
2021/04/29 12:36:23;;;;;;;5.05;2.00;;;17.10;54.50;;;;;;4974430;28;20131;-40
2021/04/29 12:38:49;;;;;;;5.53;2.13;;;16.70;54.30;;;;;;4974031;28;20026;-41
2021/04/29 12:41:15;;;;;;;8.18;2.40;;;16.70;53.90;;;;;;4974189;28;20027;-40
2021/04/29 12:43:41;;;;;;;5.22;1.80;;;16.70;54.30;;;;;;4974021;28;20027;-39
2021/04/29 12:46:07;;;;;;;4.55;2.28;;;16.70;54.40;;;;;;4973973;28;20101;-40
2021/04/29 12:48:39;;;;;;;5.97;1.80;;;16.70;54.50;;;;;;4973083;28;20042;-40
2021/04/29 12:51:12;;;;;;;4.28;2.15;;;16.70;54.70;;;;;;4974221;28;20015;-40
2021/04/29 12:53:50;;;;;;;8.90;1.98;;;16.60;54.30;;;;;;4974214;28;20027;-40